Latest Coastal Weather Observations for Neptune Island

IDS60701

Issued at 9:21 pm CST Sunday 1 May 2016 (issued every 10 minutes, with the page automatically refreshed every 10 minutes)

About coastal observations | Map of coastal stations | Coastal observations for SA | Marine services | Other Formats
Station Details ID: 018115 Name: NEPTUNE ISLAND Lat: -35.34 Lon: 136.12 Height: 32.0 m
Data from the previous 72 hours. | See also: Recent months at Neptune Island
Date/Time
CST
Temp

°C
Wind Pressure Rain
since 9am
mm
Weather Cloud Vis
km
Sea
Height
m
Swell
Dir
 
Speed
knots
Gust
knots
hPa Trend Height
m
Period
s
Dir
01/09:00pm 15.5 WNW 13 16 1016.5 - 0.0 - - - - - - -
01/08:30pm 15.7 WNW 15 19 1016.6 - 0.0 - - - - - - -
01/08:00pm 15.6 WNW 12 15 1016.7 - 0.0 - - - - - - -
01/07:30pm 15.6 W 14 16 1016.9 - 0.0 - - - - - - -
01/07:00pm 15.6 WNW 14 17 1016.9 - 0.0 - - - - - - -
01/06:30pm 15.5 W 14 19 1016.7 - 0.0 - - - - - - -
01/06:00pm 15.6 W 13 17 1016.6 - 0.0 - - - - - - -
01/05:30pm 15.8 WNW 11 16 1016.4 - 0.0 - - - - - - -
01/05:00pm 15.7 W 12 14 1016.4 - 0.0 - - - - - - -
01/04:30pm 15.8 W 12 16 1016.5 - 0.0 - - - - - - -
01/04:00pm 16.2 W 13 16 1016.5 - 0.0 - - - - - - -
01/03:30pm 16.4 W 11 16 1016.3 - 0.0 - - - - - - -
01/03:00pm 16.3 W 11 15 1016.4 - 0.0 - - - - - - -
01/02:30pm 16.4 WSW 11 13 1016.4 - 0.0 - - - - - - -
01/02:00pm 16.6 WSW 13 16 1016.3 - 0.0 - - - - - - -
01/01:30pm 16.9 WSW 14 16 1016.3 - 0.0 - - - - - - -
01/01:00pm 16.3 WSW 15 19 1016.5 - 0.0 - - - - - - -
01/12:30pm 16.2 WSW 17 20 1016.6 - 0.0 - - - - - - -
01/12:00pm 15.5 WSW 18 22 1017.0 - 0.0 - - - - - - -
01/11:30am 15.3 SW 16 23 1016.9 - 0.0 - - - - - - -
01/11:00am 16.0 WSW 14 16 1017.1 - 0.0 - - - - - - -
01/10:30am 15.7 WSW 19 23 1016.7 - 0.0 - - - - - - -
01/10:00am 15.5 SW 20 23 1016.7 - 0.0 - - - - - - -
01/09:30am 15.4 SW 18 23 1016.6 - 0.0 - - - - - - -
01/09:00am 14.9 SW 18 23 1016.5 - 3.6 - - - - - - -
01/08:30am 14.6 WSW 24 30 1016.1 - 3.6 - - - - - - -
01/08:00am 14.9 WSW 23 28 1015.7 - 3.6 - - - - - - -
01/07:30am 14.5 SW 25 29 1015.1 - 3.6 - - - - - - -
01/07:00am 14.4 SW 25 31 1014.7 - 3.6 - - - - - - -
01/06:30am 14.5 WSW 25 35 1014.3 - 3.6 - - - - - - -
01/06:06am 14.6 WSW 28 40 1013.5 - 3.4 - - - - - - -
01/06:00am 14.7 WSW 24 32 1013.6 - 3.4 - - - - - - -
01/05:58am 14.3 SW 24 31 1013.8 - 3.4 - - - - - - -
01/05:31am 14.4 WSW 31 45 1012.9 - 3.4 - - - - - - -
01/05:30am 15.0 WSW 30 37 1013.0 - 3.4 - - - - - - -
01/05:00am 15.0 WSW 31 35 1012.5 - 3.4 - - - - - - -
01/04:30am 14.2 WSW 32 39 1012.0 - 3.4 - - - - - - -
01/04:18am 14.9 WSW 31 44 1011.3 - 3.4 - - - - - - -
01/04:00am 14.8 W 31 39 1011.1 - 3.4 - - - - - - -
01/03:30am 14.7 WSW 36 43 1010.6 - 3.4 - - - - - - -
01/03:00am 14.5 WSW 33 39 1010.2 - 3.4 - - - - - - -
01/02:30am 15.0 WSW 34 42 1009.8 - 3.4 - - - - - - -
01/02:00am 14.7 W 35 42 1009.3 - 3.4 - - - - - - -
01/01:30am 14.7 WSW 35 41 1009.1 - 3.4 - - - - - - -
01/01:01am 13.9 W 29 41 1008.8 - 3.4 - - - - - - -
01/01:00am 14.3 W 28 36 1008.9 - 3.4 - - - - - - -
01/12:44am 14.0 WSW 30 47 1008.5 - 2.8 - - - - - - -
01/12:30am 14.7 WSW 34 40 1008.4 - 2.2 - - - - - - -
01/12:15am 14.8 W 28 42 1008.3 - 2.2 - - - - - - -
01/12:00am 14.1 W 34 42 1008.5 - 2.2 Rain - - - - - -
 
Date/Time
CST
Temp

°C
Wind Pressure Rain
since 9am
mm
Weather Cloud Vis
km
Sea
Height
m
Swell
Dir
 
Speed
knots
Gust
knots
hPa Trend Height
m
Period
s
Dir
30/11:51pm 14.4 W 31 42 1008.2 - 2.0 - - - - - - -
30/11:30pm 15.1 W 31 39 1008.3 - 2.0 - - - - - - -
30/11:00pm 14.2 W 31 37 1008.2 - 2.0 - - - - - - -
30/10:30pm 15.5 W 29 34 1007.9 - 1.4 - - - - - - -
30/10:00pm 15.2 WSW 33 37 1007.7 - 1.4 - - - - - - -
30/09:30pm 14.2 WSW 31 39 1007.7 - 1.4 - - - - - - -
30/09:06pm 14.7 W 34 46 1006.8 - 1.4 - - - - - - -
30/09:00pm 15.7 WNW 33 40 1006.8 - 1.4 - - - - - - -
30/08:30pm 14.8 W 32 40 1006.7 - 1.4 - - - - - - -
30/08:22pm 14.8 W 34 44 1006.4 - 1.4 - - - - - - -
30/08:00pm 15.8 WNW 32 39 1005.9 - 1.4 - - - - - - -
30/07:30pm 15.6 WNW 28 33 1006.0 - 1.4 - - - - - - -
30/07:00pm 15.1 W 27 35 1005.6 - 1.4 - - - - - - -
30/06:30pm 15.5 WNW 29 37 1005.2 - 0.2 - - - - - - -
30/06:00pm 16.5 WNW 29 36 1004.4 - 0.0 - - - - - - -
30/05:30pm 18.0 WNW 37 49 1003.7 - 0.0 - - - - - - -
30/05:27pm 18.2 NW 39 49 1003.4 - 0.0 - - - - - - -
30/05:24pm 18.8 NW 39 49 1003.1 - 0.0 - - - - - - -
30/05:08pm 20.4 NNW 31 41 1003.0 - 0.0 - - - - - - -
30/05:00pm 20.3 NNW 29 36 1003.1 - 0.0 - - - - - - -
30/04:30pm 20.5 NNW 26 32 1003.0 - 0.0 - - - - - - -
30/04:00pm 20.1 NW 27 31 1003.5 - 0.0 - - - - - - -
30/03:30pm 20.7 NW 27 35 1003.2 - 0.0 - - - - - - -
30/03:00pm 21.3 NW 23 28 1003.4 - 0.0 - - - - - - -
30/02:40pm 22.0 NW 25 35 1003.4 - 0.0 - - - - - - -
30/02:30pm 22.0 NW 25 29 1003.6 - 0.0 - - - - - - -
30/02:00pm 22.1 NNW 20 23 1004.0 - 0.0 - - - - - - -
30/01:30pm 22.3 N 16 20 1004.7 - 0.0 - - - - - - -
30/01:00pm 21.8 N 20 24 1005.3 - 0.0 - - - - - - -
30/12:30pm 20.9 N 17 20 1006.0 - 0.0 - - - - - - -
30/12:00pm 21.0 N 17 21 1006.8 - 0.0 - - - - - - -
30/11:30am 20.6 N 18 21 1007.5 - 0.0 - - - - - - -
30/11:00am 20.4 N 17 19 1007.9 - 0.0 - - - - - - -
30/10:30am 19.8 N 16 19 1008.6 - 0.0 - - - - - - -
30/10:00am 18.9 N 16 19 1009.0 - 0.0 - - - - - - -
30/09:30am 18.3 N 18 22 1009.4 - 0.0 - - - - - - -
30/09:00am 17.8 N 16 20 1009.7 - 0.0 - - - - - - -
30/08:30am 17.3 N 17 20 1009.8 - 0.0 - - - - - - -
30/08:00am 17.1 N 17 20 1009.6 - 0.0 - - - - - - -
30/07:30am 16.9 N 16 20 1009.6 - 0.0 - - - - - - -
30/07:00am 16.2 N 17 19 1009.5 - 0.0 - - - - - - -
30/06:30am 16.6 NNW 18 21 1009.4 - 0.0 - - - - - - -
30/06:00am 16.7 NNW 19 22 1009.4 - 0.0 - - - - - - -
30/05:30am 16.8 NNW 20 25 1009.4 - 0.0 - - - - - - -
30/05:00am 16.7 NNW 20 24 1009.4 - 0.0 - - - - - - -
30/04:30am 16.4 NNW 19 23 1009.3 - 0.0 - - - - - - -
30/04:00am 16.4 NNW 18 23 1009.3 - 0.0 - - - - - - -
30/03:30am 16.4 NNW 19 23 1009.3 - 0.0 - - - - - - -
30/03:00am 16.5 NNW 17 21 1009.5 - 0.0 - - - - - - -
30/02:30am 16.8 NNW 19 22 1009.7 - 0.0 - - - - - - -
30/02:00am 16.8 NNW 17 22 1009.8 - 0.0 - - - - - - -
30/01:30am 16.9 NNW 17 20 1009.7 - 0.0 - - - - - - -
30/01:00am 17.0 NNW 19 22 1010.0 - 0.0 - - - - - - -
30/12:30am 16.9 NNW 20 23 1010.3 - 0.0 - - - - - - -
30/12:00am 17.2 NNW 21 25 1010.6 - 0.0 - - - - - - -
 
Date/Time
CST
Temp

°C
Wind Pressure Rain
since 9am
mm
Weather Cloud Vis
km
Sea
Height
m
Swell
Dir
 
Speed
knots
Gust
knots
hPa Trend Height
m
Period
s
Dir
29/11:30pm 17.3 NNW 20 23 1011.0 - 0.0 - - - - - - -
29/11:00pm 17.2 NNW 19 23 1011.1 - 0.0 - - - - - - -
29/10:30pm 17.4 NNW 19 22 1011.4 - 0.0 - - - - - - -
29/10:00pm 17.3 NNW 19 22 1011.5 - 0.0 - - - - - - -
29/09:30pm 17.4 NNW 18 22 1011.3 - 0.0 - - - - - - -
29/09:00pm 17.7 NNW 19 23 1011.3 - 0.0 - - - - - - -
29/08:30pm 17.7 NW 18 21 1011.2 - 0.0 - - - - - - -
29/08:00pm 17.7 NNW 15 18 1010.9 - 0.0 - - - - - - -
29/07:30pm 17.8 NW 14 16 1010.9 - 0.0 - - - - - - -
29/07:00pm 17.8 NW 14 16 1010.8 - 0.0 - - - - - - -
29/06:30pm 17.9 NW 13 15 1010.7 - 0.0 - - - - - - -
29/06:00pm 18.0 NW 12 14 1010.4 - 0.0 - - - - - - -
29/05:30pm 18.4 NW 11 13 1010.2 - 0.0 - - - - - - -
29/05:00pm 18.9 WNW 12 14 1010.0 - 0.0 - - - - - - -
29/04:30pm 19.2 NW 10 13 1010.0 - 0.0 - - - - - - -
29/04:00pm 19.3 WNW 12 15 1009.9 - 0.0 - - - - - - -
29/03:30pm 19.4 WNW 14 16 1009.8 - 0.0 - - - - - - -
29/03:00pm 19.8 WNW 13 16 1009.5 - 0.0 - - - - - - -
29/02:30pm 19.7 WNW 15 18 1009.5 - 0.0 - - - - - - -
29/02:00pm 19.7 WNW 16 19 1009.7 - 0.0 - - - - - - -
29/01:30pm 19.0 WNW 18 21 1009.6 - 0.0 - - - - - - -
29/01:00pm 19.4 WNW 17 21 1009.7 - 0.0 - - - - - - -
29/12:30pm 20.4 NNW 13 14 1009.9 - 0.0 - - - - - - -
29/12:00pm 20.0 NNW 13 16 1010.1 - 0.0 - - - - - - -
29/11:30am 19.4 N 15 18 1010.1 - 0.0 - - - - - - -
29/11:00am 19.6 N 14 17 1010.3 - 0.0 - - - - - - -
29/10:30am 18.5 N 18 21 1010.5 - 0.0 - - - - - - -
29/10:00am 18.2 N 20 23 1010.2 - 0.0 - - - - - - -
29/09:30am 17.9 N 20 22 1010.3 - 0.0 - - - - - - -
29/09:00am 17.5 N 19 23 1010.4 - 2.2 - - - - - - -
29/08:30am 17.3 N 19 24 1010.3 - 2.2 - - - - - - -
29/08:00am 16.9 N 19 24 1010.2 - 2.2 - - - - - - -
29/07:30am 16.8 N 18 22 1009.9 - 2.2 - - - - - - -
29/07:00am 16.9 N 16 19 1009.7 - 2.2 - - - - - - -
29/06:30am 16.7 N 18 20 1009.5 - 2.2 - - - - - - -
29/06:00am 16.4 N 17 21 1009.5 - 2.2 - - - - - - -
29/05:30am 16.3 N 19 22 1009.3 - 2.2 - - - - - - -
29/05:00am 16.5 N 19 21 1009.3 - 2.2 - - - - - - -
29/04:30am 16.4 N 20 23 1009.1 - 2.2 - - - - - - -
29/04:00am 16.3 N 15 18 1008.9 - 2.2 - - - - - - -
29/03:30am 16.7 N 19 23 1009.3 - 2.2 - - - - - - -
29/03:00am 16.4 N 17 20 1009.5 - 2.2 Recent precip. - - - - - -
29/02:30am 16.8 N 20 25 1010.1 - 2.2 - - - - - - -
29/02:00am 17.9 NNW 20 23 1009.8 - 1.8 - - - - - - -
29/01:30am 18.1 NNW 19 24 1010.7 - 1.8 - - - - - - -
29/01:00am 17.7 NNW 13 16 1010.5 - 1.8 - - - - - - -
29/12:30am 17.6 NNW 10 13 1009.9 - 1.6 - - - - - - -
29/12:00am 17.7 WNW 11 13 1010.2 - 1.6 Recent precip. - - - - - -
 
Date/Time
CST
Temp

°C
Wind Pressure Rain
since 9am
mm
Weather Cloud Vis
km
Sea
Height
m
Swell
Dir
 
Speed
knots
Gust
knots
hPa Trend Height
m
Period
s
Dir
28/11:30pm 17.7 WNW 7 11 1010.2 - 1.6 - - - - - - -
28/11:00pm 17.7 W 9 11 1010.3 - 1.2 - - - - - - -
28/10:30pm 17.6 NNW 2 6 1010.3 - 1.2 - - - - - - -
28/10:00pm 17.6 E 1 4 1010.2 - 1.2 - - - - - - -
28/09:30pm 17.4 E 6 7 1010.3 - 1.2 - - - - - - -

Other Formats:

Comma delimited format used in spreadsheet applications
http://www.bom.gov.au/fwo/IDS60701/IDS60701.94804.axf

JavaScript Object Notation format (JSON) in row-major order
http://www.bom.gov.au/fwo/IDS60701/IDS60701.94804.json